Airfield :
LOGIN :

Register | Disclaimer

   EN    FR    IT 

 










Legend :    VFR   Marginal VFR   IFR   Intensive IFR   Very Intensive IFR
Visi :
Ceiling :
>= 8 km
>= 3000ft
5 to 8 km
1000 to 3000 ft
1500m to 5 km
500 to 1000 ft
800 to 1500m
200 to 500 ft
< 800m
< 200 ft
Symbols :   Thunderstorms  Fog  Heavy snow  Heavy precipitations  Wind > 20 kt
SIGMETs :     Misc.  Thunderstorms  Icing  Turbulence  Mountain Waves  Volcanic Ashes







- Airport Elevation : 600 ft
- IATA code : VIE


LOWW - Vienna Schwechat

CURRENT METAR :
  • 262120Z 30003KT 9999 SCT050 SCT110 14/12 Q1025 NOSIG

EXPIRED METARs :
  • 262050Z 33003KT 9999 SCT047 SCT110 14/12 Q1025 NOSIG
  • 262020Z 35003KT 9999 SCT047 BKN110 14/12 Q1025 NOSIG
  • 261950Z 33004KT 9999 FEW044 SCT050 BKN110 14/12 Q1025 NOSIG
  • 261920Z 35004KT CAVOK 15/13 Q1025 NOSIG
  • 261850Z 02005KT CAVOK 15/12 Q1025 NOSIG

TAF COR TAF LOWW
Valid from the 26 at 18:00 until the 28 at 00:00 UTC


261754Z 2618/2724 03005KT 9999 FEW050 SCT090 TX19/2713Z TN10/2703Z
BECMG 2620/2623 VRB02KT 4000 BR
TEMPO 2623/2707 1500 BCFG
PROB40
TEMPO 2702/2707 0500 FG VV002
BECMG 2707/2710 16010KT 9999 FEW015 SCT030
No reported NOTAMs for that airfield.



MET'MAP, your aeronautical weather chart ! - Copyright ORBIFLY December 2007 - Disclaimer

ORBIFLY MET'MAP TEAM :

Programming & Development : Alexandra Zaïnal
Concept & Development : Baudouin d'Aumeries
Co-Development & Prog : Marc-Olivier Méhu
Technical & hardware support : Manuel Goepfert

Contact : metmap@orbifly.com




SOURCES & CREDITS :

   NOAA